Time;durP1;ratioP1;P1;durP2;ratioP2;P2;SDS_P1;SDS_P2;PMS_P1;PMS_P2;Temp;Humidity;BMP_temperature;BMP_pressure;BME280_temperature;BME280_humidity;BME280_pressure;Samples;Min_cycle;Max_cycle;Signal;HPM_P1;HPM_P2
2022/08/18 00:00:30;;;;;;;93.37;74.17;;;;;;;;;;5033910;28;20265;-70
2022/08/18 00:02:59;;;;;;;91.97;72.80;;;;;;;;;;5034013;28;20171;-69
2022/08/18 00:05:24;;;;;;;93.13;72.97;;;;;;;;;;5032566;28;20396;-69
2022/08/18 00:07:50;;;;;;;94.27;73.90;;;;;;;;;;5032408;28;20211;-70
2022/08/18 00:10:16;;;;;;;88.87;71.77;;;;;;;;;;5034358;28;20190;-70
2022/08/18 00:12:42;;;;;;;89.53;71.13;;;;;;;;;;5032543;28;20241;-70
2022/08/18 00:15:10;;;;;;;94.57;75.30;;;;;;;;;;5032390;28;20646;-69
2022/08/18 00:17:36;;;;;;;95.83;75.10;;;;;;;;;;5033591;28;20187;-69
2022/08/18 00:20:04;;;;;;;91.07;73.37;;;;;;;;;;5033597;28;20206;-69
2022/08/18 00:22:30;;;;;;;94.47;73.13;;;;;;;;;;5033578;28;20176;-70
2022/08/18 00:24:57;;;;;;;99.50;76.93;;;;;;;;;;5033724;28;20262;-69
2022/08/18 00:27:28;;;;;;;95.87;74.77;;;;;;;;;;5033961;28;20279;-70
2022/08/18 00:29:54;;;;;;;94.33;74.40;;;;;;;;;;5033824;28;20179;-69
2022/08/18 00:32:23;;;;;;;92.37;73.60;;;;;;;;;;5032558;28;20218;-69
2022/08/18 00:34:49;;;;;;;94.17;74.63;;;;;;;;;;5032194;28;20185;-69
2022/08/18 00:37:15;;;;;;;97.70;75.63;;;;;;;;;;5033852;28;20690;-70
2022/08/18 00:39:40;;;;;;;97.47;75.07;;;;;;;;;;5033585;28;20207;-69
2022/08/18 00:42:14;;;;;;;96.80;77.03;;;;;;;;;;5032294;28;20269;-69
2022/08/18 00:44:40;;;;;;;96.90;75.20;;;;;;;;;;5033391;28;20228;-69
2022/08/18 00:47:06;;;;;;;95.60;75.00;;;;;;;;;;5033565;28;20270;-70
2022/08/18 00:49:32;;;;;;;94.77;73.97;;;;;;;;;;5033337;28;20203;-69
2022/08/18 00:51:59;;;;;;;92.90;73.67;;;;;;;;;;5033917;28;20189;-69
2022/08/18 00:54:28;;;;;;;89.80;71.13;;;;;;;;;;5037553;28;20260;-69
2022/08/18 00:56:59;;;;;;;90.77;70.43;;;;;;;;;;5036475;28;20193;-70
2022/08/18 00:59:25;;;;;;;90.20;69.70;;;;;;;;;;5037336;28;20626;-70
2022/08/18 01:01:52;;;;;;;88.20;71.37;;;;;;;;;;5035988;28;20187;-69
2022/08/18 01:04:22;;;;;;;89.47;70.10;;;;;;;;;;5036269;28;20237;-70
2022/08/18 01:06:56;;;;;;;89.60;71.30;;;;;;;;;;5037146;28;20175;-70
2022/08/18 01:09:22;;;;;;;88.53;69.50;;;;;;;;;;5037026;28;20214;-70
2022/08/18 01:11:50;;;;;;;88.27;69.20;;;;;;;;;;5035768;28;20593;-69
2022/08/18 01:14:17;;;;;;;87.40;68.97;;;;;;;;;;5036971;28;20179;-69
2022/08/18 01:22:26;;;;;;;89.77;70.03;;;;;;;;;;5037355;28;20225;-70
2022/08/18 01:27:40;;;;;;;90.87;69.57;;;;;;;;;;5036867;28;20241;-70
2022/08/18 01:30:08;;;;;;;84.23;66.77;;;;;;;;;;5035325;28;20233;-71
2022/08/18 01:32:35;;;;;;;98.20;73.87;;;;;;;;;;5035332;28;20179;-70
2022/08/18 01:35:01;;;;;;;91.40;70.07;;;;;;;;;;5036483;28;20186;-70
2022/08/18 01:37:28;;;;;;;97.30;73.07;;;;;;;;;;5036997;28;20570;-69
2022/08/18 01:39:54;;;;;;;91.77;69.40;;;;;;;;;;5036467;28;20209;-69
2022/08/18 01:42:20;;;;;;;104.97;76.97;;;;;;;;;;5036622;28;20175;-69
2022/08/18 01:44:47;;;;;;;94.47;71.30;;;;;;;;;;5036365;28;20183;-70
2022/08/18 01:47:13;;;;;;;93.20;71.07;;;;;;;;;;5036428;28;20171;-69
2022/08/18 01:49:41;;;;;;;93.03;68.03;;;;;;;;;;5035088;28;20207;-70
2022/08/18 01:52:08;;;;;;;92.50;69.03;;;;;;;;;;5034788;28;20186;-70
2022/08/18 01:54:34;;;;;;;91.37;68.47;;;;;;;;;;5034917;28;20236;-70
2022/08/18 01:57:00;;;;;;;89.83;66.07;;;;;;;;;;5036271;28;20179;-70
2022/08/18 01:59:26;;;;;;;83.13;60.63;;;;;;;;;;5034855;28;20211;-70
2022/08/18 02:01:54;;;;;;;91.57;66.07;;;;;;;;;;5036043;28;20203;-70
2022/08/18 02:04:22;;;;;;;96.07;66.97;;;;;;;;;;5034804;28;20179;-70
2022/08/18 02:06:48;;;;;;;98.07;70.47;;;;;;;;;;5035837;28;20206;-70
2022/08/18 02:09:14;;;;;;;101.47;70.80;;;;;;;;;;5035803;28;20269;-70
2022/08/18 02:11:40;;;;;;;98.30;69.63;;;;;;;;;;5035901;28;20179;-70
2022/08/18 02:14:06;;;;;;;98.97;70.40;;;;;;;;;;5035855;28;20183;-70
2022/08/18 02:16:32;;;;;;;98.07;70.17;;;;;;;;;;5034706;28;20640;-70
2022/08/18 02:18:58;;;;;;;95.13;70.17;;;;;;;;;;5036945;28;20218;-69
2022/08/18 02:21:24;;;;;;;96.20;67.70;;;;;;;;;;5034534;28;20233;-70
2022/08/18 02:23:50;;;;;;;99.77;70.30;;;;;;;;;;5035729;28;20549;-70
2022/08/18 02:26:17;;;;;;;95.10;67.50;;;;;;;;;;5035731;28;20171;-70
2022/08/18 02:28:43;;;;;;;93.57;67.63;;;;;;;;;;5034413;28;20285;-69
2022/08/18 02:31:11;;;;;;;89.87;62.57;;;;;;;;;;5036331;28;20549;-70
2022/08/18 02:33:38;;;;;;;87.67;60.67;;;;;;;;;;5034297;28;20225;-69
2022/08/18 02:36:05;;;;;;;101.73;67.40;;;;;;;;;;5035958;28;20176;-70
2022/08/18 02:38:32;;;;;;;105.00;68.03;;;;;;;;;;5035543;28;20194;-70
2022/08/18 02:40:59;;;;;;;107.07;70.73;;;;;;;;;;5035479;28;20183;-69
2022/08/18 02:43:25;;;;;;;104.33;69.50;;;;;;;;;;5034047;28;20179;-70
2022/08/18 02:45:51;;;;;;;105.90;67.17;;;;;;;;;;5035409;28;20640;-70
2022/08/18 02:48:36;;;;;;;104.57;68.80;;;;;;;;;;5033887;28;20203;-70
2022/08/18 02:51:05;;;;;;;100.83;64.53;;;;;;;;;;5033880;28;20181;-70
2022/08/18 02:53:31;;;;;;;102.30;65.90;;;;;;;;;;5035169;28;20186;-70
2022/08/18 02:56:09;;;;;;;110.77;70.83;;;;;;;;;;5035204;28;20262;-70
2022/08/18 02:58:35;;;;;;;111.53;69.77;;;;;;;;;;5033676;28;20557;-70
2022/08/18 03:01:01;;;;;;;110.77;69.30;;;;;;;;;;5035237;28;20175;-70
2022/08/18 03:03:27;;;;;;;113.70;74.43;;;;;;;;;;5034932;28;20543;-71
2022/08/18 03:05:52;;;;;;;116.37;71.40;;;;;;;;;;5035461;28;20686;-71
2022/08/18 03:08:18;;;;;;;117.50;72.83;;;;;;;;;;5034632;28;20237;-70
2022/08/18 03:10:44;;;;;;;103.83;67.13;;;;;;;;;;5035326;28;20529;-69
2022/08/18 03:13:10;;;;;;;112.33;72.17;;;;;;;;;;5034747;28;20182;-71
2022/08/18 03:15:36;;;;;;;112.73;71.73;;;;;;;;;;5034365;28;20179;-70
2022/08/18 03:18:02;;;;;;;116.13;71.80;;;;;;;;;;5035169;28;20203;-70
2022/08/18 03:20:28;;;;;;;110.90;71.73;;;;;;;;;;5033472;28;20690;-70
2022/08/18 03:22:54;;;;;;;112.43;72.53;;;;;;;;;;5033351;28;20554;-70
2022/08/18 03:25:20;;;;;;;108.13;70.83;;;;;;;;;;5035004;28;20529;-69
2022/08/18 03:27:46;;;;;;;107.17;71.53;;;;;;;;;;5034773;28;20281;-70
2022/08/18 03:30:12;;;;;;;105.30;67.23;;;;;;;;;;5035428;28;20207;-70
2022/08/18 03:32:38;;;;;;;106.43;70.00;;;;;;;;;;5035434;28;20186;-70
2022/08/18 03:35:04;;;;;;;97.93;67.50;;;;;;;;;;5034782;28;20183;-70
2022/08/18 03:37:30;;;;;;;91.63;64.47;;;;;;;;;;5035135;28;20266;-70
2022/08/18 03:39:56;;;;;;;90.97;64.87;;;;;;;;;;5033257;28;20203;-69
2022/08/18 03:42:22;;;;;;;93.87;65.70;;;;;;;;;;5034617;28;20185;-68
2022/08/18 03:44:48;;;;;;;92.60;63.30;;;;;;;;;;5034504;28;20258;-71
2022/08/18 03:47:16;;;;;;;95.87;65.37;;;;;;;;;;5034258;28;20176;-67
2022/08/18 03:49:42;;;;;;;92.27;63.90;;;;;;;;;;5034441;28;20214;-72
2022/08/18 03:52:09;;;;;;;90.33;63.33;;;;;;;;;;5034929;28;20171;-70
2022/08/18 03:54:37;;;;;;;90.30;64.23;;;;;;;;;;5032885;28;20183;-69
2022/08/18 03:57:03;;;;;;;90.87;63.60;;;;;;;;;;5033943;28;20179;-69
2022/08/18 03:59:30;;;;;;;101.07;64.13;;;;;;;;;;5033899;28;20210;-69
2022/08/18 04:01:56;;;;;;;98.30;72.00;;;;;;;;;;5032761;28;20462;-69
2022/08/18 04:04:26;;;;;;;90.90;61.67;;;;;;;;;;5034412;28;20175;-69
2022/08/18 04:06:55;;;;;;;88.20;61.13;;;;;;;;;;5034426;28;20221;-69
2022/08/18 04:09:23;;;;;;;92.87;59.77;;;;;;;;;;5032465;28;20211;-69
2022/08/18 04:11:49;;;;;;;96.27;60.50;;;;;;;;;;5033698;28;20181;-69
2022/08/18 04:14:17;;;;;;;94.50;61.70;;;;;;;;;;5033876;28;20194;-69
2022/08/18 04:16:44;;;;;;;92.63;60.37;;;;;;;;;;5032660;28;20266;-70
2022/08/18 04:19:12;;;;;;;99.83;64.30;;;;;;;;;;5032333;28;20203;-69
2022/08/18 04:21:40;;;;;;;95.60;64.67;;;;;;;;;;5033513;28;20178;-69
2022/08/18 04:24:06;;;;;;;94.67;64.07;;;;;;;;;;5034141;28;20233;-69
2022/08/18 04:26:35;;;;;;;90.07;60.67;;;;;;;;;;5033122;28;20176;-69
2022/08/18 04:29:01;;;;;;;90.97;58.47;;;;;;;;;;5033335;28;20203;-69
2022/08/18 04:31:28;;;;;;;86.70;58.77;;;;;;;;;;5033455;28;20190;-70
2022/08/18 04:33:55;;;;;;;86.37;59.57;;;;;;;;;;5032319;28;20183;-69
2022/08/18 04:36:21;;;;;;;92.83;61.23;;;;;;;;;;5032179;28;20270;-70
2022/08/18 04:38:48;;;;;;;92.63;59.50;;;;;;;;;;5033501;28;20211;-69
2022/08/18 04:41:14;;;;;;;89.00;58.77;;;;;;;;;;5033774;28;20172;-69
2022/08/18 04:43:40;;;;;;;90.50;60.60;;;;;;;;;;5033812;28;20183;-69
2022/08/18 04:46:07;;;;;;;87.83;60.57;;;;;;;;;;5032151;28;20175;-69
2022/08/18 04:48:35;;;;;;;94.57;60.77;;;;;;;;;;5033398;28;20253;-70
2022/08/18 04:51:08;;;;;;;83.53;57.43;;;;;;;;;;5031868;28;20270;-69
2022/08/18 04:53:44;;;;;;;90.17;58.43;;;;;;;;;;5031904;28;20597;-70
2022/08/18 04:56:13;;;;;;;91.17;58.80;;;;;;;;;;5033083;28;20165;-69
2022/08/18 04:58:39;;;;;;;88.97;58.27;;;;;;;;;;5031601;28;20203;-69
2022/08/18 05:01:05;;;;;;;91.13;59.73;;;;;;;;;;5033278;28;20175;-69
2022/08/18 05:03:31;;;;;;;86.77;56.40;;;;;;;;;;5033426;28;20175;-70
2022/08/18 05:05:58;;;;;;;92.87;60.13;;;;;;;;;;5033248;28;20187;-69
2022/08/18 05:08:25;;;;;;;93.70;60.60;;;;;;;;;;5031433;28;20309;-71
2022/08/18 05:10:56;;;;;;;96.70;60.47;;;;;;;;;;5033578;28;20680;-70
2022/08/18 05:13:24;;;;;;;101.77;63.33;;;;;;;;;;5033130;28;20202;-69
2022/08/18 05:15:57;;;;;;;103.67;64.80;;;;;;;;;;5031819;28;20676;-69
2022/08/18 05:18:23;;;;;;;102.10;60.07;;;;;;;;;;5032888;28;20253;-70
2022/08/18 05:20:54;;;;;;;100.83;61.63;;;;;;;;;;5031700;28;20290;-70
2022/08/18 05:23:20;;;;;;;108.00;64.60;;;;;;;;;;5033414;28;20183;-70
2022/08/18 05:25:47;;;;;;;96.53;62.00;;;;;;;;;;5031779;28;20183;-71
2022/08/18 05:28:13;;;;;;;102.40;64.87;;;;;;;;;;5032918;28;20233;-69
2022/08/18 05:30:40;;;;;;;106.87;64.40;;;;;;;;;;5032731;28;20187;-70
2022/08/18 05:33:06;;;;;;;104.10;64.47;;;;;;;;;;5033026;28;20207;-70
2022/08/18 05:35:44;;;;;;;105.50;64.97;;;;;;;;;;5032936;28;20187;-70
2022/08/18 05:38:10;;;;;;;102.80;63.30;;;;;;;;;;5032257;28;20737;-70
2022/08/18 05:40:37;;;;;;;103.73;62.47;;;;;;;;;;5035273;28;20579;-70
2022/08/18 05:43:03;;;;;;;95.80;61.00;;;;;;;;;;5036490;28;20180;-71
2022/08/18 05:45:29;;;;;;;94.87;61.07;;;;;;;;;;5036556;28;20182;-70
2022/08/18 05:47:59;;;;;;;100.23;60.60;;;;;;;;;;5035189;28;20562;-70
2022/08/18 05:50:25;;;;;;;94.00;60.57;;;;;;;;;;5036518;28;20210;-70
2022/08/18 05:52:53;;;;;;;94.67;59.40;;;;;;;;;;5035112;28;20644;-70
2022/08/18 05:58:15;;;;;;;90.87;59.83;;;;;;;;;;5036627;28;20214;-70
2022/08/18 06:00:45;;;;;;;88.47;57.30;;;;;;;;;;5036293;28;20278;-69
2022/08/18 06:03:21;;;;;;;87.60;58.27;;;;;;;;;;5036159;28;20263;-70
2022/08/18 06:05:56;;;;;;;91.90;57.37;;;;;;;;;;5036346;28;20202;-70
2022/08/18 06:08:24;;;;;;;91.73;59.50;;;;;;;;;;5034508;28;20218;-70
2022/08/18 06:10:50;;;;;;;89.40;57.40;;;;;;;;;;5036367;28;20179;-70
2022/08/18 06:13:18;;;;;;;88.13;58.23;;;;;;;;;;5036096;28;20179;-70
2022/08/18 06:15:55;;;;;;;82.23;56.40;;;;;;;;;;5036086;28;20171;-70
2022/08/18 06:18:25;;;;;;;82.93;56.67;;;;;;;;;;5035789;28;20199;-70
2022/08/18 06:21:00;;;;;;;76.57;54.40;;;;;;;;;;5035931;28;20229;-71
2022/08/18 06:23:40;;;;;;;80.90;55.50;;;;;;;;;;5034620;28;20179;-70
2022/08/18 06:26:16;;;;;;;78.83;55.00;;;;;;;;;;5036051;28;20167;-70
2022/08/18 06:28:45;;;;;;;78.63;54.37;;;;;;;;;;5035751;28;20220;-70
2022/08/18 06:31:17;;;;;;;78.80;55.83;;;;;;;;;;5036085;28;20636;-69
2022/08/18 06:33:55;;;;;;;78.13;56.27;;;;;;;;;;5036180;28;20163;-70
2022/08/18 06:36:27;;;;;;;90.10;57.53;;;;;;;;;;5035646;28;20585;-70
2022/08/18 06:39:00;;;;;;;84.57;54.83;;;;;;;;;;5035330;28;20646;-70
2022/08/18 06:41:37;;;;;;;81.53;54.30;;;;;;;;;;5034375;28;20179;-70
2022/08/18 06:44:06;;;;;;;88.20;58.80;;;;;;;;;;5035488;28;20640;-70
2022/08/18 06:46:38;;;;;;;82.10;58.97;;;;;;;;;;5034036;28;20179;-70
2022/08/18 06:49:06;;;;;;;82.03;56.63;;;;;;;;;;5034201;28;20341;-71
2022/08/18 06:51:32;;;;;;;77.07;56.17;;;;;;;;;;5034724;28;20179;-70
2022/08/18 06:54:03;;;;;;;79.13;56.20;;;;;;;;;;5033937;28;20193;-71
2022/08/18 06:56:33;;;;;;;72.43;56.57;;;;;;;;;;5035242;28;20532;-71
2022/08/18 06:59:17;;;;;;;71.37;54.57;;;;;;;;;;5035407;28;20199;-71
2022/08/18 07:01:44;;;;;;;65.27;52.73;;;;;;;;;;5034007;28;20179;-70
2022/08/18 07:04:29;;;;;;;73.47;53.83;;;;;;;;;;5033861;28;20234;-70
2022/08/18 07:06:55;;;;;;;66.90;51.60;;;;;;;;;;5035311;28;20576;-70
2022/08/18 07:09:23;;;;;;;65.47;51.17;;;;;;;;;;5033679;28;20215;-70
2022/08/18 07:12:08;;;;;;;62.10;50.47;;;;;;;;;;5033686;28;20175;-70
2022/08/18 07:14:47;;;;;;;61.47;50.07;;;;;;;;;;5035021;28;20185;-70
2022/08/18 07:17:21;;;;;;;61.07;49.20;;;;;;;;;;5035355;28;20245;-70
2022/08/18 07:19:54;;;;;;;62.97;49.33;;;;;;;;;;5035189;28;20566;-70
2022/08/18 07:22:20;;;;;;;56.67;45.67;;;;;;;;;;5035246;28;20238;-70
2022/08/18 07:24:50;;;;;;;52.17;43.80;;;;;;;;;;5034930;28;20266;-70
2022/08/18 07:27:17;;;;;;;43.20;36.90;;;;;;;;;;5033510;28;20186;-71
2022/08/18 07:30:05;;;;;;;39.83;34.50;;;;;;;;;;5034808;28;20636;-70
2022/08/18 07:32:44;;;;;;;37.77;32.17;;;;;;;;;;5034957;28;20225;-70
2022/08/18 07:35:11;;;;;;;34.37;30.67;;;;;;;;;;5035046;28;20171;-70
2022/08/18 07:37:40;;;;;;;34.43;30.70;;;;;;;;;;5034662;28;20175;-70
2022/08/18 07:40:12;;;;;;;33.50;29.77;;;;;;;;;;5034684;28;20198;-70
2022/08/18 07:42:47;;;;;;;32.80;29.30;;;;;;;;;;5034494;28;20164;-70
2022/08/18 07:45:17;;;;;;;31.70;28.33;;;;;;;;;;5034907;28;20676;-70
2022/08/18 07:47:44;;;;;;;35.23;28.00;;;;;;;;;;5034501;28;20221;-70
2022/08/18 07:50:10;;;;;;;33.37;27.60;;;;;;;;;;5034547;28;20186;-70
2022/08/18 07:52:38;;;;;;;30.80;26.47;;;;;;;;;;5033362;28;20191;-70
2022/08/18 07:55:04;;;;;;;29.20;26.20;;;;;;;;;;5033085;28;20232;-70
2022/08/18 07:57:42;;;;;;;28.27;25.37;;;;;;;;;;5034495;28;20229;-70
2022/08/18 08:00:18;;;;;;;28.83;25.73;;;;;;;;;;5032774;28;20210;-70
2022/08/18 08:03:02;;;;;;;28.17;25.17;;;;;;;;;;5032006;28;20556;-70
2022/08/18 08:05:47;;;;;;;30.97;25.70;;;;;;;;;;5034499;28;20225;-70
2022/08/18 08:08:22;;;;;;;28.37;25.43;;;;;;;;;;5033121;28;20221;-70
2022/08/18 08:10:52;;;;;;;26.43;23.57;;;;;;;;;;5034819;28;20659;-71
2022/08/18 08:13:27;;;;;;;28.50;25.53;;;;;;;;;;5034534;28;20167;-71
2022/08/18 08:16:20;;;;;;;29.83;25.37;;;;;;;;;;5034288;28;20550;-70
2022/08/18 08:18:53;;;;;;;27.50;24.60;;;;;;;;;;5034281;28;20203;-70
2022/08/18 08:21:20;;;;;;;34.50;24.10;;;;;;;;;;5034686;28;20682;-70
2022/08/18 08:23:54;;;;;;;25.97;23.07;;;;;;;;;;5034734;28;20179;-70
2022/08/18 08:26:29;;;;;;;26.03;21.73;;;;;;;;;;5034528;28;20179;-70
2022/08/18 08:29:07;;;;;;;29.03;22.00;;;;;;;;;;5034669;28;20203;-70
2022/08/18 08:31:41;;;;;;;24.80;21.97;;;;;;;;;;5035029;28;20171;-70
2022/08/18 08:34:20;;;;;;;26.47;21.60;;;;;;;;;;5034786;28;20183;-70
2022/08/18 08:36:47;;;;;;;25.00;22.30;;;;;;;;;;5034634;28;20601;-69
2022/08/18 08:39:31;;;;;;;23.97;21.50;;;;;;;;;;5034840;28;20294;-70
2022/08/18 08:42:15;;;;;;;24.53;21.97;;;;;;;;;;5034841;28;20270;-72
2022/08/18 08:44:45;;;;;;;25.23;21.80;;;;;;;;;;5036065;28;20164;-71
2022/08/18 08:47:37;;;;;;;28.17;22.27;;;;;;;;;;5034346;28;20228;-69
2022/08/18 08:50:07;;;;;;;24.97;22.37;;;;;;;;;;5032079;28;20203;-71
2022/08/18 08:52:36;;;;;;;24.57;22.13;;;;;;;;;;5049983;23;20235;-68
2022/08/18 08:55:09;;;;;;;24.63;22.03;;;;;;;;;;5015264;28;20176;-68
2022/08/18 08:58:01;;;;;;;23.43;21.13;;;;;;;;;;5032942;28;20175;-68
2022/08/18 09:00:28;;;;;;;24.63;21.37;;;;;;;;;;5009903;28;20233;-68
2022/08/18 09:03:00;;;;;;;24.67;20.40;;;;;;;;;;5032920;28;20195;-69
2022/08/18 09:05:28;;;;;;;24.93;22.27;;;;;;;;;;5033526;28;20206;-70
2022/08/18 09:08:12;;;;;;;22.80;20.50;;;;;;;;;;5032869;28;20179;-68
2022/08/18 09:10:50;;;;;;;22.87;20.53;;;;;;;;;;5032758;28;20186;-68
2022/08/18 09:13:16;;;;;;;22.37;20.10;;;;;;;;;;5033761;28;20194;-68
2022/08/18 09:16:01;;;;;;;24.07;20.90;;;;;;;;;;5019104;28;20183;-68
2022/08/18 09:18:43;;;;;;;23.07;20.67;;;;;;;;;;5036442;28;20175;-68
2022/08/18 09:21:28;;;;;;;22.87;19.83;;;;;;;;;;5018896;28;20343;-68
2022/08/18 09:24:04;;;;;;;21.70;19.53;;;;;;;;;;5036408;28;20567;-68
2022/08/18 09:26:59;;;;;;;20.57;18.47;;;;;;;;;;5036678;28;20164;-68
2022/08/18 09:29:45;;;;;;;21.97;18.93;;;;;;;;;;5006057;28;20287;-68
2022/08/18 09:32:21;;;;;;;19.23;17.30;;;;;;;;;;5018597;28;20616;-68
2022/08/18 09:35:05;;;;;;;19.80;17.27;;;;;;;;;;5036240;28;20174;-68
2022/08/18 09:37:40;;;;;;;18.83;17.00;;;;;;;;;;5036246;28;20266;-68
2022/08/18 09:43:05;;;;;;;18.07;16.03;;;;;;;;;;5036524;28;20250;-68
2022/08/18 09:45:31;;;;;;;16.40;14.70;;;;;;;;;;5036164;28;20274;-68
2022/08/18 09:48:22;;;;;;;16.40;14.80;;;;;;;;;;5018377;28;20270;-68
2022/08/18 09:50:53;;;;;;;15.50;14.10;;;;;;;;;;5036115;28;20627;-68
2022/08/18 09:53:51;;;;;;;15.80;14.20;;;;;;;;;;5035881;28;20219;-68
2022/08/18 09:56:36;;;;;;;14.90;13.47;;;;;;;;;;5023963;28;20211;-68
2022/08/18 09:59:04;;;;;;;14.30;12.77;;;;;;;;;;5035974;28;20182;-68
2022/08/18 10:01:35;;;;;;;13.17;11.87;;;;;;;;;;5036007;28;20179;-68
2022/08/18 10:04:16;;;;;;;13.00;11.63;;;;;;;;;;5018239;28;20256;-69
2022/08/18 10:06:43;;;;;;;13.53;12.17;;;;;;;;;;5018237;28;20644;-68
2022/08/18 10:09:27;;;;;;;16.00;12.27;;;;;;;;;;5035919;28;20171;-68
2022/08/18 10:12:14;;;;;;;13.77;12.40;;;;;;;;;;5035977;28;20183;-67
2022/08/18 10:14:40;;;;;;;13.80;12.40;;;;;;;;;;5008098;28;20245;-68
2022/08/18 10:17:13;;;;;;;13.23;11.90;;;;;;;;;;5035908;28;20179;-68
2022/08/18 10:19:48;;;;;;;17.13;12.27;;;;;;;;;;5035465;28;20205;-68
2022/08/18 10:22:33;;;;;;;16.27;12.90;;;;;;;;;;5035484;28;20198;-68
2022/08/18 10:24:59;;;;;;;13.30;12.00;;;;;;;;;;5034701;28;20168;-68
2022/08/18 10:27:45;;;;;;;13.47;12.10;;;;;;;;;;5035735;28;20175;-68
2022/08/18 10:30:30;;;;;;;13.40;12.03;;;;;;;;;;5017689;28;20179;-68
2022/08/18 10:32:56;;;;;;;13.87;12.50;;;;;;;;;;5035122;28;20207;-69
2022/08/18 10:35:37;;;;;;;13.80;11.47;;;;;;;;;;5035292;28;20207;-68
2022/08/18 10:38:12;;;;;;;13.47;12.07;;;;;;;;;;5035199;28;20178;-68
2022/08/18 10:40:38;;;;;;;12.33;11.23;;;;;;;;;;5035026;28;20252;-68
2022/08/18 10:43:10;;;;;;;12.67;11.30;;;;;;;;;;5035046;28;20205;-68
2022/08/18 10:45:37;;;;;;;12.00;10.90;;;;;;;;;;5035031;28;20588;-68
2022/08/18 10:48:03;;;;;;;14.13;12.73;;;;;;;;;;5035056;28;20179;-68
2022/08/18 10:50:30;;;;;;;13.40;11.57;;;;;;;;;;5034994;28;20652;-69
2022/08/18 10:53:01;;;;;;;14.03;11.17;;;;;;;;;;5034746;28;20721;-68
2022/08/18 10:55:44;;;;;;;11.30;10.23;;;;;;;;;;5035260;28;20175;-69
2022/08/18 10:58:15;;;;;;;13.43;10.27;;;;;;;;;;5034968;28;20167;-69
2022/08/18 11:00:57;;;;;;;10.87;9.77;;;;;;;;;;5035047;28;20245;-69
2022/08/18 11:03:47;;;;;;;9.73;8.80;;;;;;;;;;5035038;28;20248;-68
2022/08/18 11:06:17;;;;;;;10.43;8.47;;;;;;;;;;5035039;28;20168;-69
2022/08/18 11:08:46;;;;;;;8.53;7.73;;;;;;;;;;5034685;28;20613;-68
2022/08/18 11:11:12;;;;;;;8.33;7.50;;;;;;;;;;5034585;28;20179;-69
2022/08/18 11:13:41;;;;;;;9.10;8.20;;;;;;;;;;5016766;28;20205;-69
2022/08/18 11:16:11;;;;;;;11.73;8.43;;;;;;;;;;5016694;28;20187;-69
2022/08/18 11:18:45;;;;;;;11.87;8.83;;;;;;;;;;5016587;28;20193;-68
2022/08/18 11:21:30;;;;;;;9.73;8.80;;;;;;;;;;5034407;28;20199;-69
2022/08/18 11:24:11;;;;;;;9.53;8.27;;;;;;;;;;5034286;28;20191;-68
2022/08/18 11:26:39;;;;;;;9.33;8.43;;;;;;;;;;5034264;28;20171;-68
2022/08/18 11:29:23;;;;;;;9.90;7.87;;;;;;;;;;5034292;28;20643;-68
2022/08/18 11:31:55;;;;;;;7.90;7.10;;;;;;;;;;5034258;28;20182;-68
2022/08/18 11:34:25;;;;;;;8.27;7.50;;;;;;;;;;5016407;28;20179;-68
2022/08/18 11:36:56;;;;;;;8.53;7.40;;;;;;;;;;5016281;28;20168;-68
2022/08/18 11:39:22;;;;;;;8.60;7.70;;;;;;;;;;5034333;28;20197;-69
2022/08/18 11:41:49;;;;;;;9.27;7.00;;;;;;;;;;5016118;28;20179;-68
2022/08/18 11:44:17;;;;;;;7.77;6.90;;;;;;;;;;5034690;28;20202;-68
2022/08/18 11:46:43;;;;;;;7.80;7.00;;;;;;;;;;5036010;28;20171;-67
2022/08/18 11:49:15;;;;;;;8.40;7.57;;;;;;;;;;5018499;28;20186;-68
2022/08/18 11:51:53;;;;;;;7.30;6.33;;;;;;;;;;5036957;28;20600;-68
2022/08/18 11:54:20;;;;;;;7.07;6.07;;;;;;;;;;5017228;28;20225;-67
2022/08/18 11:56:46;;;;;;;7.40;6.40;;;;;;;;;;5034577;28;20179;-68
2022/08/18 11:59:25;;;;;;;7.93;6.33;;;;;;;;;;5034035;28;20569;-67
2022/08/18 12:01:55;;;;;;;7.37;6.43;;;;;;;;;;5033260;28;20174;-67
2022/08/18 12:04:23;;;;;;;7.33;6.43;;;;;;;;;;5015595;28;20187;-68
2022/08/18 12:06:54;;;;;;;10.97;5.80;;;;;;;;;;5015571;28;20183;-68
2022/08/18 12:09:22;;;;;;;7.47;6.60;;;;;;;;;;5033439;28;20171;-68
2022/08/18 12:11:50;;;;;;;16.33;6.93;;;;;;;;;;5033438;28;20215;-67
2022/08/18 12:14:20;;;;;;;6.47;5.97;;;;;;;;;;5033297;28;20266;-68
2022/08/18 12:16:45;;;;;;;11.60;7.47;;;;;;;;;;5033177;28;20175;-68
2022/08/18 12:19:12;;;;;;;8.37;7.10;;;;;;;;;;5033319;28;20206;-67
2022/08/18 12:21:40;;;;;;;8.70;7.40;;;;;;;;;;5032950;28;20250;-68
2022/08/18 12:24:09;;;;;;;9.67;7.30;;;;;;;;;;5032932;28;20199;-68
2022/08/18 12:26:35;;;;;;;8.37;7.13;;;;;;;;;;5015317;28;20183;-68
2022/08/18 12:29:01;;;;;;;13.63;6.83;;;;;;;;;;5015274;28;20228;-67
2022/08/18 12:31:27;;;;;;;9.87;8.00;;;;;;;;;;5033037;28;20183;-67
2022/08/18 12:33:53;;;;;;;8.67;7.60;;;;;;;;;;5015126;28;20298;-67
2022/08/18 12:36:19;;;;;;;7.37;6.43;;;;;;;;;;5032875;28;20175;-68
2022/08/18 12:38:45;;;;;;;11.33;7.20;;;;;;;;;;5032834;28;20245;-68
2022/08/18 12:41:14;;;;;;;12.60;7.40;;;;;;;;;;5032883;28;20234;-68
2022/08/18 12:43:39;;;;;;;8.03;7.23;;;;;;;;;;5014886;28;20199;-68
2022/08/18 12:46:06;;;;;;;8.50;7.37;;;;;;;;;;5033258;28;20171;-69
2022/08/18 12:48:32;;;;;;;10.77;6.80;;;;;;;;;;5035927;28;20227;-68
2022/08/18 12:50:58;;;;;;;9.50;7.93;;;;;;;;;;5039616;28;20187;-68
2022/08/18 12:53:25;;;;;;;8.83;7.33;;;;;;;;;;5039275;28;20289;-68
2022/08/18 12:55:51;;;;;;;8.90;8.00;;;;;;;;;;5039540;28;20179;-69
2022/08/18 12:58:16;;;;;;;9.83;8.83;;;;;;;;;;5021537;28;20282;-68
2022/08/18 13:00:42;;;;;;;9.53;8.43;;;;;;;;;;5021585;28;20304;-69
2022/08/18 13:03:08;;;;;;;10.43;9.17;;;;;;;;;;5021534;28;20194;-69
2022/08/18 13:05:36;;;;;;;11.27;8.50;;;;;;;;;;5021650;28;20183;-68
2022/08/18 13:08:03;;;;;;;7.43;6.63;;;;;;;;;;5039163;28;20175;-69
2022/08/18 13:10:29;;;;;;;9.37;7.33;;;;;;;;;;5021524;28;20559;-69
2022/08/18 13:12:55;;;;;;;9.70;6.83;;;;;;;;;;5039308;28;20205;-69
2022/08/18 13:15:23;;;;;;;6.80;5.73;;;;;;;;;;5039180;28;20548;-69
2022/08/18 13:17:49;;;;;;;7.13;6.53;;;;;;;;;;5039572;28;20245;-69
2022/08/18 13:20:15;;;;;;;6.63;6.00;;;;;;;;;;5021338;28;20705;-68
2022/08/18 13:22:41;;;;;;;6.73;5.90;;;;;;;;;;5039341;28;20199;-69
2022/08/18 13:25:10;;;;;;;7.17;5.90;;;;;;;;;;5039097;28;20277;-69
2022/08/18 13:27:36;;;;;;;7.53;5.70;;;;;;;;;;5021253;28;20190;-69
2022/08/18 13:30:04;;;;;;;7.97;6.30;;;;;;;;;;5039638;28;20217;-69
2022/08/18 13:32:30;;;;;;;8.50;7.23;;;;;;;;;;5039044;28;20226;-68
2022/08/18 13:34:56;;;;;;;8.50;7.60;;;;;;;;;;5021137;28;20190;-68
2022/08/18 13:37:25;;;;;;;8.17;7.37;;;;;;;;;;5039032;28;20179;-69
2022/08/18 13:39:51;;;;;;;8.30;6.87;;;;;;;;;;5039196;28;20198;-69
2022/08/18 13:42:17;;;;;;;8.93;6.73;;;;;;;;;;5038906;28;20199;-68
2022/08/18 13:44:43;;;;;;;6.47;5.90;;;;;;;;;;5039079;28;20254;-69
2022/08/18 13:47:09;;;;;;;5.90;5.40;;;;;;;;;;5039346;28;20215;-68
2022/08/18 13:49:35;;;;;;;6.97;6.20;;;;;;;;;;5038991;28;20189;-68
2022/08/18 13:52:01;;;;;;;6.17;5.60;;;;;;;;;;5039116;28;20207;-68
2022/08/18 13:54:32;;;;;;;7.83;6.07;;;;;;;;;;5021156;28;20179;-68
2022/08/18 13:56:59;;;;;;;8.27;6.90;;;;;;;;;;5038923;28;20178;-69
2022/08/18 13:59:30;;;;;;;7.17;6.13;;;;;;;;;;5019978;28;20203;-69
2022/08/18 14:01:56;;;;;;;6.80;6.20;;;;;;;;;;5036091;28;20582;-68
2022/08/18 14:04:22;;;;;;;6.57;6.07;;;;;;;;;;5036012;28;20624;-69
2022/08/18 14:06:50;;;;;;;7.20;6.23;;;;;;;;;;5018099;28;20528;-69
2022/08/18 14:09:16;;;;;;;6.38;5.75;;;;;;;;;;5018067;28;20527;-69
2022/08/18 14:11:43;;;;;;;8.75;5.40;;;;;;;;;;5035701;28;20202;-68
2022/08/18 14:14:09;;;;;;;5.63;5.13;;;;;;;;;;5017803;28;20182;-69
2022/08/18 14:16:35;;;;;;;6.05;4.80;;;;;;;;;;5035976;28;20175;-69
2022/08/18 14:27:24;;;;;;;4.50;4.10;;;;;;;;;;5035621;28;20204;-68
2022/08/18 14:29:50;;;;;;;6.65;4.82;;;;;;;;;;5017282;28;20167;-68
2022/08/18 14:32:21;;;;;;;4.55;4.15;;;;;;;;;;5017435;28;20199;-68
2022/08/18 14:34:47;;;;;;;4.82;4.35;;;;;;;;;;5035122;28;20225;-68
2022/08/18 14:37:13;;;;;;;6.90;5.17;;;;;;;;;;5017192;28;20183;-68
2022/08/18 14:39:39;;;;;;;5.03;4.53;;;;;;;;;;5035042;28;20233;-68
2022/08/18 14:42:05;;;;;;;5.10;4.70;;;;;;;;;;5035132;28;20187;-68
2022/08/18 14:44:31;;;;;;;4.97;4.57;;;;;;;;;;5035838;28;20594;-68
2022/08/18 14:46:57;;;;;;;7.37;5.33;;;;;;;;;;5034993;28;20254;-68
2022/08/18 14:49:23;;;;;;;5.57;4.90;;;;;;;;;;5035220;28;20180;-69
2022/08/18 14:51:50;;;;;;;5.65;5.22;;;;;;;;;;5017076;28;20187;-68
2022/08/18 14:54:16;;;;;;;5.07;4.65;;;;;;;;;;5035014;28;20191;-68
2022/08/18 14:56:42;;;;;;;5.43;4.80;;;;;;;;;;5035079;28;20647;-68
2022/08/18 14:59:08;;;;;;;6.07;5.38;;;;;;;;;;5016932;28;20198;-68